Time;durP1;ratioP1;P1;durP2;ratioP2;P2;SDS_P1;SDS_P2;PMS_P1;PMS_P2;Temp;Humidity;BMP_temperature;BMP_pressure;BME280_temperature;BME280_humidity;BME280_pressure;Samples;Min_cycle;Max_cycle;Signal;HPM_P1;HPM_P2
2022/11/02 00:01:59;;;;;;;9.27;2.88;;;;;;;10.89;100.00;101418.88;7377918;19;20034;-71
2022/11/02 00:04:29;;;;;;;6.78;2.28;;;;;;;10.84;100.00;101415.25;7377292;19;20015;-71
2022/11/02 00:07:02;;;;;;;8.00;2.25;;;;;;;10.87;100.00;101420.56;7376144;19;20025;-72
2022/11/02 00:09:32;;;;;;;10.38;2.72;;;;;;;10.90;100.00;101418.03;7377426;19;20119;-71
2022/11/02 00:12:01;;;;;;;7.60;2.45;;;;;;;10.94;100.00;101423.38;7378525;19;20115;-73
2022/11/02 00:14:31;;;;;;;10.55;2.60;;;;;;;11.05;100.00;101436.72;7373097;19;20014;-71
2022/11/02 00:17:01;;;;;;;9.38;2.30;;;;;;;11.09;100.00;101449.03;7373654;19;20066;-71
2022/11/02 00:19:31;;;;;;;7.05;2.40;;;;;;;11.07;100.00;101467.38;7374237;19;20030;-73
2022/11/02 00:22:04;;;;;;;5.47;1.95;;;;;;;10.94;100.00;101474.97;7374179;19;20017;-72
2022/11/02 00:24:35;;;;;;;5.68;1.85;;;;;;;10.82;100.00;101457.22;7372010;19;20019;-70
2022/11/02 00:27:04;;;;;;;5.13;1.73;;;;;;;10.61;100.00;101448.88;7372367;19;20555;-70
2022/11/02 00:29:35;;;;;;;5.72;1.58;;;;;;;10.42;100.00;101437.06;7371826;19;20006;-71
2022/11/02 00:32:06;;;;;;;2.00;1.10;;;;;;;10.30;100.00;101421.97;7376843;19;20093;-72
2022/11/02 00:34:35;;;;;;;2.97;0.95;;;;;;;10.08;100.00;101428.38;7377966;19;20007;-72
2022/11/02 00:37:07;;;;;;;4.15;1.42;;;;;;;9.96;100.00;101433.31;7374909;19;20479;-72
2022/11/02 00:39:37;;;;;;;3.72;1.38;;;;;;;9.92;100.00;101447.19;7376424;19;20623;-72
2022/11/02 00:42:08;;;;;;;1.77;0.90;;;;;;;9.85;100.00;101432.16;7378687;19;20020;-71
2022/11/02 00:44:37;;;;;;;4.50;1.20;;;;;;;9.77;100.00;101412.75;7376804;19;20030;-72
2022/11/02 00:47:07;;;;;;;4.05;1.10;;;;;;;9.87;100.00;101424.34;7376038;19;20598;-71
2022/11/02 00:49:36;;;;;;;4.40;1.20;;;;;;;9.79;100.00;101416.28;7379335;19;20014;-72
2022/11/02 00:52:09;;;;;;;3.85;1.23;;;;;;;9.77;100.00;101420.59;7375546;19;20010;-71
2022/11/02 00:54:38;;;;;;;2.30;1.20;;;;;;;9.76;100.00;101422.34;7373998;19;20010;-71
2022/11/02 00:57:08;;;;;;;2.38;1.00;;;;;;;9.81;100.00;101411.97;7373448;19;20015;-72
2022/11/02 00:59:38;;;;;;;4.30;1.10;;;;;;;9.81;100.00;101410.25;7371912;19;20775;-71
2022/11/02 01:02:07;;;;;;;5.95;1.38;;;;;;;9.80;100.00;101413.72;7376515;19;20014;-72
2022/11/02 01:04:37;;;;;;;5.38;1.17;;;;;;;9.77;100.00;101411.00;7372991;19;20007;-72
2022/11/02 01:07:09;;;;;;;6.60;1.52;;;;;;;9.80;100.00;101418.06;7368853;19;20015;-72
2022/11/02 01:09:39;;;;;;;12.10;1.70;;;;;;;9.78;100.00;101418.03;7369578;19;20019;-72
2022/11/02 01:12:09;;;;;;;6.78;2.88;;;;;;;9.84;100.00;101419.91;7370532;19;20022;-72
2022/11/02 01:14:39;;;;;;;5.90;1.52;;;;;;;9.89;100.00;101409.53;7369338;19;20326;-72
2022/11/02 01:17:08;;;;;;;6.70;1.52;;;;;;;9.86;100.00;101418.22;7366112;19;20011;-72
2022/11/02 01:19:38;;;;;;;6.53;1.30;;;;;;;9.94;100.00;101421.03;7376431;19;20082;-72
2022/11/02 01:22:10;;;;;;;6.97;1.52;;;;;;;9.91;100.00;101421.84;7371223;19;20014;-72
2022/11/02 01:24:40;;;;;;;9.75;1.70;;;;;;;9.85;100.00;101429.53;7372222;19;20010;-72
2022/11/02 01:27:10;;;;;;;9.02;1.45;;;;;;;9.80;100.00;101423.31;7370562;19;20309;-73
2022/11/02 01:29:40;;;;;;;5.03;1.45;;;;;;;9.79;100.00;101411.94;7371977;19;20022;-72
2022/11/02 01:32:09;;;;;;;4.10;1.42;;;;;;;9.86;100.00;101418.22;7373450;19;20007;-72
2022/11/02 01:34:39;;;;;;;7.60;1.95;;;;;;;9.92;100.00;101418.38;7371079;19;20010;-73
2022/11/02 01:37:12;;;;;;;7.78;1.92;;;;;;;9.89;100.00;101409.53;7375891;19;20051;-72
2022/11/02 01:39:41;;;;;;;8.82;1.83;;;;;;;9.87;100.00;101413.88;7377553;19;20021;-73
2022/11/02 01:42:19;;;;;;;6.75;1.50;;;;;;;9.91;100.00;101420.94;7376445;19;20022;-73
2022/11/02 01:44:50;;;;;;;10.52;1.88;;;;;;;10.01;100.00;101408.13;7376287;19;20022;-73
2022/11/02 01:47:26;;;;;;;8.45;1.98;;;;;;;10.07;100.00;101392.53;7374794;19;20015;-73
2022/11/02 01:50:00;;;;;;;6.65;1.65;;;;;;;10.12;100.00;101397.91;7380470;19;20022;-73
2022/11/02 01:52:36;;;;;;;7.18;2.05;;;;;;;10.10;100.00;101403.09;7384483;19;20039;-73
2022/11/02 01:55:12;;;;;;;8.15;2.03;;;;;;;10.15;100.00;101396.22;7377681;19;20098;-72
2022/11/02 01:57:45;;;;;;;7.97;2.13;;;;;;;10.18;100.00;101408.53;7377675;19;20011;-73
2022/11/02 02:00:17;;;;;;;8.77;1.88;;;;;;;10.27;100.00;101415.75;7376922;19;20093;-74
2022/11/02 02:02:53;;;;;;;6.05;1.70;;;;;;;10.36;100.00;101427.34;7374613;19;20015;-73
2022/11/02 02:05:24;;;;;;;8.52;2.10;;;;;;;10.42;100.00;101435.31;7374923;19;20018;-73
2022/11/02 02:07:57;;;;;;;8.30;2.05;;;;;;;10.54;100.00;101432.09;7376072;19;20015;-73
2022/11/02 02:10:27;;;;;;;5.93;2.07;;;;;;;10.49;100.00;101421.50;7371162;19;20015;-73
2022/11/02 02:12:57;;;;;;;11.98;2.10;;;;;;;10.53;100.00;101417.22;7381278;19;20271;-73
2022/11/02 02:15:32;;;;;;;8.10;2.47;;;;;;;10.56;100.00;101426.88;7374211;19;20037;-74
2022/11/02 02:18:09;;;;;;;4.50;1.85;;;;;;;10.62;100.00;101414.78;7377140;19;20037;-73
2022/11/02 02:20:54;;;;;;;9.32;2.28;;;;;;;10.63;100.00;101432.31;7372670;19;20041;-73
2022/11/02 02:23:52;;;;;;;11.43;2.60;;;;;;;10.68;100.00;101412.31;7375048;19;20018;-73
2022/11/02 02:27:06;;;;;;;7.05;1.95;;;;;;;10.75;100.00;101415.94;7373460;19;20025;-73
2022/11/02 02:29:50;;;;;;;8.95;2.03;;;;;;;10.71;100.00;101425.50;7372168;19;20014;-73
2022/11/02 02:32:27;;;;;;;6.88;2.00;;;;;;;10.79;100.00;101412.53;7378996;19;20020;-73
2022/11/02 02:35:03;;;;;;;9.20;2.33;;;;;;;10.82;100.00;101418.75;7375892;19;20018;-73
2022/11/02 02:37:39;;;;;;;3.55;2.33;;;;;;;10.84;100.00;101418.78;7376859;19;20019;-73
2022/11/02 02:40:15;;;;;;;10.90;2.00;;;;;;;10.85;100.00;101432.78;7375320;19;20479;-73
2022/11/02 02:42:51;;;;;;;5.00;2.22;;;;;;;10.90;100.00;101413.66;7378806;19;20025;-73
2022/11/02 02:45:30;;;;;;;6.13;2.45;;;;;;;10.82;100.00;101405.63;7374894;19;20015;-73
2022/11/02 02:48:04;;;;;;;10.18;3.00;;;;;;;10.80;100.00;101419.56;7372301;19;20018;-73
2022/11/02 02:50:40;;;;;;;10.05;2.42;;;;;;;10.69;100.00;101410.56;7374543;19;20025;-74
2022/11/02 02:53:11;;;;;;;5.15;2.00;;;;;;;10.65;100.00;101409.63;7375070;19;20011;-74
2022/11/02 02:55:46;;;;;;;6.30;2.28;;;;;;;10.59;100.00;101421.72;7372449;19;20023;-73
2022/11/02 02:58:22;;;;;;;12.15;2.47;;;;;;;10.50;100.00;101427.63;7379562;19;20025;-72
2022/11/02 03:00:55;;;;;;;14.43;2.53;;;;;;;10.46;100.00;101423.16;7378400;19;20030;-72
2022/11/02 03:03:28;;;;;;;6.50;2.10;;;;;;;10.41;100.00;101424.81;7374295;19;20157;-72
2022/11/02 03:06:05;;;;;;;;;;;;;;;10.39;100.00;101431.78;7373296;19;20039;-72
2022/11/02 03:08:38;;;;;;;11.02;2.50;;;;;;;10.46;100.00;101442.41;7374702;19;19911;-72
2022/11/02 03:11:14;;;;;;;10.20;2.60;;;;;;;10.40;100.00;101442.28;7375914;19;20015;-72
2022/11/02 03:14:00;;;;;;;9.00;2.38;;;;;;;10.42;100.00;101432.69;7378736;19;20010;-70
2022/11/02 03:16:44;;;;;;;11.25;2.95;;;;;;;10.40;100.00;101449.28;7377454;19;20021;-69
2022/11/02 03:19:22;;;;;;;12.07;2.67;;;;;;;10.34;100.00;101438.66;7381110;19;20010;-69
2022/11/02 03:22:01;;;;;;;19.50;3.05;;;;;;;10.42;100.00;101431.81;7379863;19;20014;-69
2022/11/02 03:24:38;;;;;;;16.48;3.35;;;;;;;10.45;100.00;101434.50;7378775;19;20018;-69
2022/11/02 03:27:17;;;;;;;9.27;2.88;;;;;;;10.48;100.00;101438.09;7376338;19;20078;-69
2022/11/02 03:29:54;;;;;;;13.15;2.78;;;;;;;10.54;100.00;101426.84;7378573;19;20026;-69
2022/11/02 03:32:35;;;;;;;12.00;2.47;;;;;;;10.52;100.00;101453.91;7379811;19;20027;-69
2022/11/02 03:35:11;;;;;;;12.20;2.80;;;;;;;10.46;100.00;101455.53;7376458;19;20010;-69
2022/11/02 03:37:43;;;;;;;14.73;2.40;;;;;;;10.47;100.00;101475.66;7379367;19;20106;-69
2022/11/02 03:40:18;;;;;;;21.48;3.08;;;;;;;10.48;100.00;101474.81;7379824;19;20025;-69
2022/11/02 03:42:50;;;;;;;13.75;3.00;;;;;;;10.43;100.00;101478.16;7380129;19;20108;-69
2022/11/02 03:45:22;;;;;;;10.05;2.70;;;;;;;10.44;100.00;101477.31;7379858;19;20619;-70
2022/11/02 03:48:00;;;;;;;16.65;4.43;;;;;;;10.43;100.00;101470.31;7378906;19;20017;-70
2022/11/02 03:50:31;;;;;;;16.05;3.22;;;;;;;10.44;100.00;101483.44;7377952;19;20050;-69
2022/11/02 03:53:07;;;;;;;15.00;2.70;;;;;;;10.50;100.00;101490.56;7379868;19;20042;-70
2022/11/02 03:55:42;;;;;;;13.27;2.72;;;;;;;10.49;100.00;101501.91;7374406;19;20011;-69
2022/11/02 03:58:13;;;;;;;16.25;3.55;;;;;;;10.44;100.00;101495.66;7375978;19;20098;-69
2022/11/02 04:00:49;;;;;;;13.57;2.35;;;;;;;10.46;100.00;101499.22;7374773;19;20020;-69
2022/11/02 04:03:24;;;;;;;22.40;4.13;;;;;;;10.44;100.00;101498.28;7375495;19;20022;-69
2022/11/02 04:05:54;;;;;;;16.70;3.08;;;;;;;10.48;100.00;101502.75;7374885;19;20019;-69
2022/11/02 04:08:30;;;;;;;16.75;3.25;;;;;;;10.53;100.00;101510.75;7377374;19;20010;-70
2022/11/02 04:16:39;;;;;;;12.68;2.95;;;;;;;10.61;100.00;101527.56;7375458;19;20713;-70
2022/11/02 04:27:19;;;;;;;10.18;2.88;;;;;;;10.52;100.00;101583.28;7380565;19;20021;-69
2022/11/02 04:29:49;;;;;;;11.07;2.65;;;;;;;10.43;100.00;101590.94;7380395;19;20380;-69
2022/11/02 04:33:31;;;;;;;16.70;3.50;;;;;;;10.40;100.00;101596.13;7376415;19;20010;-69
2022/11/02 04:35:10;;;;;;;8.27;2.13;;;;;;;10.39;100.00;101604.84;7377974;19;20011;-69
2022/11/02 04:40:22;;;;;;;15.38;3.00;;;;;;;10.28;100.00;101611.53;7375660;19;20014;-69
2022/11/02 04:42:52;;;;;;;7.20;2.42;;;;;;;10.22;100.00;101611.38;7371847;19;20014;-69
2022/11/02 04:45:22;;;;;;;9.48;2.17;;;;;;;10.15;100.00;101616.41;7376080;19;20021;-69
2022/11/02 04:47:51;;;;;;;11.75;3.00;;;;;;;10.11;100.00;101618.91;7373909;19;20047;-70
2022/11/02 04:50:24;;;;;;;12.82;2.60;;;;;;;10.23;100.00;101624.53;7375806;19;20078;-69
2022/11/02 04:52:57;;;;;;;11.88;3.30;;;;;;;10.22;100.00;101627.09;7375451;19;20014;-70
2022/11/02 04:55:27;;;;;;;12.15;2.80;;;;;;;10.13;100.00;101636.44;7376471;19;20022;-69
2022/11/02 04:57:57;;;;;;;13.13;2.63;;;;;;;10.18;100.00;101640.94;7376509;19;20086;-70
2022/11/02 05:00:27;;;;;;;8.93;2.10;;;;;;;10.16;100.00;101644.41;7377585;19;20030;-70
2022/11/02 05:02:57;;;;;;;10.88;2.55;;;;;;;10.14;100.00;101647.81;7374099;19;20038;-70
2022/11/02 05:05:30;;;;;;;12.20;2.28;;;;;;;10.20;100.00;101658.50;7372653;19;20019;-69
2022/11/02 05:07:59;;;;;;;9.35;2.50;;;;;;;10.24;100.00;101657.75;7370651;19;20022;-69
2022/11/02 05:10:30;;;;;;;10.48;2.65;;;;;;;10.23;100.00;101661.22;7370954;19;20018;-70
2022/11/02 05:13:00;;;;;;;9.38;2.00;;;;;;;10.25;100.00;101674.38;7368902;19;20476;-70
2022/11/02 05:15:30;;;;;;;10.13;2.10;;;;;;;10.29;100.00;101679.75;7371335;19;20019;-70
2022/11/02 05:18:00;;;;;;;9.80;1.90;;;;;;;10.32;100.00;101684.19;7371341;19;20046;-70
2022/11/02 05:20:33;;;;;;;12.30;2.42;;;;;;;10.38;100.00;101689.59;7374773;19;20054;-70
2022/11/02 05:23:05;;;;;;;8.70;2.13;;;;;;;10.34;100.00;101700.84;7372831;19;20025;-70
2022/11/02 05:25:35;;;;;;;5.38;1.92;;;;;;;10.28;100.00;101703.28;7374775;19;20035;-70
2022/11/02 05:28:05;;;;;;;8.52;2.22;;;;;;;10.33;100.00;101696.44;7372765;19;20017;-70
2022/11/02 05:30:34;;;;;;;9.13;2.65;;;;;;;10.39;100.00;101712.34;7374484;19;20014;-70
2022/11/02 05:33:04;;;;;;;9.82;2.78;;;;;;;10.40;100.00;101720.22;7376263;19;20476;-70
2022/11/02 05:35:37;;;;;;;13.25;2.17;;;;;;;10.33;100.00;101720.03;7376047;19;20015;-70
2022/11/02 05:38:07;;;;;;;8.80;1.75;;;;;;;10.32;100.00;101726.13;7372347;19;20019;-70
2022/11/02 05:40:39;;;;;;;7.20;2.20;;;;;;;10.32;100.00;101728.75;7373198;19;20060;-70
2022/11/02 05:43:09;;;;;;;5.80;2.00;;;;;;;10.30;100.00;101740.94;7374855;19;20011;-70
2022/11/02 05:45:39;;;;;;;6.63;1.80;;;;;;;10.40;100.00;101748.22;7372874;19;20019;-70
2022/11/02 05:48:09;;;;;;;8.27;2.10;;;;;;;10.35;100.00;101758.56;7372133;19;20022;-70
2022/11/02 05:50:41;;;;;;;7.05;1.52;;;;;;;10.35;100.00;101758.56;7371727;19;20015;-71
2022/11/02 05:53:11;;;;;;;5.20;1.42;;;;;;;10.31;100.00;101763.69;7375055;19;20030;-70
2022/11/02 05:55:40;;;;;;;4.90;1.88;;;;;;;10.29;100.00;101768.88;7374390;19;20017;-70
2022/11/02 05:58:10;;;;;;;5.60;1.65;;;;;;;10.32;100.00;101778.56;7372840;19;20521;-71
2022/11/02 06:00:40;;;;;;;8.85;1.75;;;;;;;10.30;100.00;101782.88;7371460;19;20015;-71
2022/11/02 06:03:10;;;;;;;8.18;2.10;;;;;;;10.36;100.00;101780.44;7371633;19;20052;-71
2022/11/02 06:05:42;;;;;;;7.43;2.05;;;;;;;10.37;100.00;101787.47;7372454;19;20488;-70
2022/11/02 06:08:12;;;;;;;10.73;2.40;;;;;;;10.31;100.00;101793.41;7372934;19;20018;-70
2022/11/02 06:10:43;;;;;;;13.35;2.67;;;;;;;10.22;100.00;101801.00;7371703;19;20011;-70
2022/11/02 06:13:13;;;;;;;9.43;1.90;;;;;;;10.30;100.00;101796.00;7368450;19;20014;-71
2022/11/02 06:15:42;;;;;;;14.05;2.65;;;;;;;10.32;100.00;101807.41;7372332;19;20003;-70
2022/11/02 06:18:12;;;;;;;11.45;2.60;;;;;;;10.24;100.00;101820.28;7372524;19;20018;-70
2022/11/02 06:20:44;;;;;;;7.50;2.03;;;;;;;10.24;100.00;101814.16;7371072;19;20011;-70
2022/11/02 06:23:16;;;;;;;8.82;1.85;;;;;;;10.28;100.00;101811.69;7377582;19;20030;-70
2022/11/02 06:25:52;;;;;;;7.15;2.05;;;;;;;10.21;100.00;101824.56;7380976;19;20015;-70
2022/11/02 06:28:22;;;;;;;6.00;1.90;;;;;;;10.19;100.00;101824.47;7382438;19;20042;-70
2022/11/02 06:30:53;;;;;;;6.35;1.48;;;;;;;10.20;100.00;101841.13;7380656;19;20403;-70
2022/11/02 06:33:23;;;;;;;8.65;1.73;;;;;;;10.20;100.00;101855.13;7376708;19;19999;-69
2022/11/02 06:35:56;;;;;;;7.75;2.00;;;;;;;10.16;100.00;101846.25;7376708;19;20018;-69
2022/11/02 06:38:26;;;;;;;5.68;1.65;;;;;;;10.33;100.00;101844.16;7376290;19;20014;-69
2022/11/02 06:40:56;;;;;;;5.93;1.77;;;;;;;10.32;100.00;101854.63;7377700;19;20011;-69
2022/11/02 06:43:26;;;;;;;10.02;1.95;;;;;;;10.22;100.00;101869.16;7375369;19;20326;-69
2022/11/02 06:45:57;;;;;;;7.88;1.70;;;;;;;10.18;100.00;101872.50;7375467;19;20022;-69
2022/11/02 06:48:28;;;;;;;6.15;1.63;;;;;;;10.21;100.00;101883.13;7376710;19;20047;-69
2022/11/02 06:51:07;;;;;;;5.53;2.05;;;;;;;10.22;100.00;101894.50;7374555;19;20086;-69
2022/11/02 06:53:37;;;;;;;7.43;1.98;;;;;;;10.11;100.00;101897.63;7377117;19;20018;-70
2022/11/02 06:56:08;;;;;;;12.95;3.35;;;;;;;10.12;100.00;101909.91;7377675;19;20025;-69
2022/11/02 06:58:38;;;;;;;9.27;2.33;;;;;;;10.09;100.00;101904.56;7380395;19;20037;-70
2022/11/02 07:01:09;;;;;;;9.55;1.77;;;;;;;10.06;100.00;101920.19;7378499;19;20018;-70
2022/11/02 07:03:39;;;;;;;11.52;2.28;;;;;;;10.06;100.00;101928.06;7377663;19;20006;-71
2022/11/02 07:06:12;;;;;;;9.80;1.77;;;;;;;10.06;100.00;101928.06;7374248;19;20014;-71
2022/11/02 07:08:43;;;;;;;9.38;2.10;;;;;;;10.09;100.00;101935.13;7377966;19;20018;-71
2022/11/02 07:11:17;;;;;;;8.60;2.30;;;;;;;10.08;100.00;101935.97;7375426;19;20022;-71
2022/11/02 07:13:46;;;;;;;9.05;2.38;;;;;;;10.06;100.00;101935.91;7377709;19;20687;-71
2022/11/02 07:16:16;;;;;;;8.27;2.35;;;;;;;10.06;100.00;101941.16;7374975;19;20007;-72
2022/11/02 07:18:46;;;;;;;6.85;1.58;;;;;;;10.08;100.00;101943.81;7377978;19;20562;-72
2022/11/02 07:21:18;;;;;;;11.15;2.53;;;;;;;10.08;100.00;101946.44;7378994;19;20017;-72
2022/11/02 07:23:49;;;;;;;12.23;2.60;;;;;;;10.10;100.00;101956.13;7377523;19;20020;-73
2022/11/02 07:26:18;;;;;;;8.75;2.47;;;;;;;10.28;100.00;101953.25;7381578;19;20010;-72
2022/11/02 07:28:48;;;;;;;9.52;2.20;;;;;;;10.35;100.00;101965.72;7376666;19;20015;-72
2022/11/02 07:31:21;;;;;;;9.02;2.10;;;;;;;10.46;100.00;101963.41;7382163;19;20021;-72
2022/11/02 07:33:50;;;;;;;13.18;2.10;;;;;;;10.51;100.00;101967.06;7374025;19;20035;-72
2022/11/02 07:36:23;;;;;;;9.82;2.25;;;;;;;10.45;100.00;101975.63;7378157;19;20094;-72
2022/11/02 07:38:52;;;;;;;7.68;1.67;;;;;;;10.45;100.00;101980.88;7375357;19;20015;-72
2022/11/02 07:41:22;;;;;;;8.52;2.50;;;;;;;10.49;100.00;101988.00;7379626;19;20006;-71
2022/11/02 07:43:52;;;;;;;14.32;2.47;;;;;;;10.58;100.00;101984.78;7376054;19;20025;-72
2022/11/02 07:46:21;;;;;;;9.95;2.83;;;;;;;10.64;100.00;101978.84;7378073;19;20029;-71
2022/11/02 07:48:51;;;;;;;9.90;2.53;;;;;;;10.68;100.00;101986.84;7375989;19;20021;-71
2022/11/02 07:51:23;;;;;;;7.78;2.03;;;;;;;10.64;100.00;101990.22;7370883;19;20014;-72
2022/11/02 07:53:53;;;;;;;11.35;2.25;;;;;;;10.71;100.00;101994.81;7378545;19;20014;-71
2022/11/02 07:56:23;;;;;;;12.23;3.03;;;;;;;10.71;100.00;101986.06;7375771;19;20021;-71
2022/11/02 07:58:52;;;;;;;9.05;2.10;;;;;;;10.62;100.00;101997.16;7377993;19;20616;-71
2022/11/02 08:01:22;;;;;;;12.18;2.08;;;;;;;10.66;100.00;101993.78;7373132;19;20093;-72
2022/11/02 08:03:53;;;;;;;6.32;1.80;;;;;;;10.69;100.00;102004.38;7377261;19;20098;-72
2022/11/02 08:06:25;;;;;;;7.50;1.90;;;;;;;10.69;100.00;102012.25;7376726;19;20026;-71
2022/11/02 08:08:55;;;;;;;11.15;2.53;;;;;;;10.64;100.00;102016.47;7376630;19;20018;-72
2022/11/02 08:11:25;;;;;;;11.43;2.80;;;;;;;10.68;100.00;102009.56;7380406;19;20040;-72
2022/11/02 08:13:55;;;;;;;7.05;2.00;;;;;;;10.74;100.00;102010.66;7379658;19;20018;-72
2022/11/02 08:16:24;;;;;;;13.13;2.17;;;;;;;10.72;100.00;102024.56;7377526;19;20103;-71
2022/11/02 08:18:54;;;;;;;10.65;2.38;;;;;;;10.69;100.00;102022.75;7375769;19;20022;-72
2022/11/02 08:21:26;;;;;;;6.95;1.88;;;;;;;10.77;100.00;102022.97;7377056;19;20021;-72
2022/11/02 08:23:56;;;;;;;6.85;2.28;;;;;;;10.75;100.00;102024.66;7375517;19;20014;-72
2022/11/02 08:26:27;;;;;;;12.13;2.33;;;;;;;10.86;100.00;102027.63;7379381;19;20018;-72
2022/11/02 08:28:56;;;;;;;5.80;1.80;;;;;;;10.87;100.00;102022.44;7379326;19;20327;-72
2022/11/02 08:31:26;;;;;;;10.63;2.28;;;;;;;10.81;100.00;102031.00;7375828;19;20018;-71
2022/11/02 08:33:57;;;;;;;9.90;2.63;;;;;;;10.90;100.00;102038.28;7372627;19;20011;-71
2022/11/02 08:36:29;;;;;;;11.60;2.88;;;;;;;10.98;100.00;102033.25;7372955;19;20010;-71
2022/11/02 08:38:59;;;;;;;9.60;2.00;;;;;;;10.99;100.00;102035.94;7370668;19;20011;-71
2022/11/02 08:41:28;;;;;;;10.98;2.58;;;;;;;11.08;100.00;102043.19;7375332;19;20007;-71
2022/11/02 08:43:58;;;;;;;9.57;2.17;;;;;;;11.13;100.00;102044.22;7378095;19;20036;-72
2022/11/02 08:46:28;;;;;;;8.00;1.50;;;;;;;11.15;100.00;102047.78;7374092;19;20010;-72
2022/11/02 08:48:58;;;;;;;9.63;2.83;;;;;;;11.23;100.00;102045.38;7378889;19;20015;-72
2022/11/02 08:51:30;;;;;;;7.28;1.98;;;;;;;11.32;100.00;102054.44;7372470;19;20048;-71
2022/11/02 08:54:00;;;;;;;7.70;2.95;;;;;;;11.46;100.00;102063.56;7374872;19;20015;-72
2022/11/02 08:56:30;;;;;;;11.82;2.13;;;;;;;11.51;100.00;102063.72;7375583;19;20405;-71
2022/11/02 08:59:00;;;;;;;7.75;1.80;;;;;;;11.57;100.00;102061.25;7373139;19;20018;-71
2022/11/02 09:01:30;;;;;;;6.57;1.80;;;;;;;11.66;100.00;102064.16;7373971;19;20039;-71
2022/11/02 09:03:59;;;;;;;12.18;2.25;;;;;;;11.68;100.00;102067.72;7378207;19;20026;-72
2022/11/02 09:06:33;;;;;;;9.70;2.42;;;;;;;11.83;100.00;102069.00;7372981;19;20550;-71
2022/11/02 09:09:03;;;;;;;8.93;2.45;;;;;;;11.98;100.00;102072.97;7378200;19;20022;-71
2022/11/02 09:11:32;;;;;;;7.20;1.40;;;;;;;11.95;100.00;102066.72;7373729;19;20029;-71
2022/11/02 09:14:02;;;;;;;8.93;2.08;;;;;;;11.89;100.00;102077.06;7374360;19;20014;-72
2022/11/02 09:16:32;;;;;;;6.60;2.05;;;;;;;11.91;100.00;102076.28;7377978;19;20026;-73
2022/11/02 09:19:09;;;;;;;9.02;1.67;;;;;;;12.11;100.00;102075.06;7370301;19;20026;-72
2022/11/02 09:21:41;;;;;;;14.57;3.10;;;;;;;12.32;100.00;102077.38;7371054;19;20022;-73
2022/11/02 09:24:11;;;;;;;8.85;2.17;;;;;;;12.42;100.00;102086.38;7378109;19;20007;-72
2022/11/02 09:26:41;;;;;;;7.25;1.70;;;;;;;12.53;100.00;102069.09;7372619;19;20074;-73
2022/11/02 09:29:11;;;;;;;7.00;2.22;;;;;;;12.69;100.00;102080.88;7373416;19;20025;-73
2022/11/02 09:31:41;;;;;;;15.07;2.67;;;;;;;12.86;100.00;102081.28;7376190;19;20014;-73
2022/11/02 09:34:11;;;;;;;9.05;1.83;;;;;;;12.93;100.00;102089.38;7371276;19;20011;-73
2022/11/02 09:36:43;;;;;;;10.02;1.95;;;;;;;12.96;100.00;102086.81;7373164;19;20017;-72
2022/11/02 09:39:13;;;;;;;8.90;2.97;;;;;;;13.08;100.00;102081.84;7370568;19;20018;-73
2022/11/02 09:41:48;;;;;;;12.13;2.17;;;;;;;13.15;100.00;102095.13;7367949;19;20011;-71
2022/11/02 09:44:26;;;;;;;9.27;2.42;;;;;;;13.12;100.00;102092.44;7370214;19;20021;-72
2022/11/02 09:46:56;;;;;;;8.07;2.30;;;;;;;13.30;100.00;102099.03;7370938;19;20018;-72
2022/11/02 09:49:49;;;;;;;10.45;3.58;;;;;;;13.41;100.00;102100.16;7370529;19;20021;-72
2022/11/02 09:52:30;;;;;;;7.22;2.03;;;;;;;13.55;100.00;102099.53;7375335;19;20094;-72
2022/11/02 09:55:06;;;;;;;9.57;2.10;;;;;;;13.60;100.00;102103.16;7373201;19;20039;-72
2022/11/02 09:57:36;;;;;;;19.42;2.80;;;;;;;13.61;100.00;102107.56;7374439;19;20003;-72
2022/11/02 10:00:07;;;;;;;14.35;2.30;;;;;;;13.60;100.00;102097.88;7382807;19;20019;-73
2022/11/02 10:02:51;;;;;;;6.85;1.90;;;;;;;13.65;100.00;102099.75;7375899;19;20037;-72
2022/11/02 10:05:32;;;;;;;11.88;2.03;;;;;;;13.62;100.00;102098.81;7378811;19;20011;-70
2022/11/02 10:08:28;;;;;;;10.15;1.77;;;;;;;13.69;100.00;102098.09;7384979;19;20085;-71
2022/11/02 10:11:15;;;;;;;11.38;1.90;;;;;;;13.92;100.00;102098.53;7384343;19;20337;-71
2022/11/02 10:13:51;;;;;;;12.13;2.30;;;;;;;14.00;100.00;102096.94;7379275;19;20010;-71
2022/11/02 10:16:29;;;;;;;17.40;2.20;;;;;;;13.73;100.00;102105.19;7383652;19;20738;-71
2022/11/02 10:18:58;;;;;;;;;;;;;;;13.51;100.00;102124.97;7378779;19;20018;-72
2022/11/02 10:21:34;;;;;;;7.95;2.00;;;;;;;13.31;100.00;102129.81;7378810;19;19921;-73
2022/11/02 10:24:13;;;;;;;9.52;2.38;;;;;;;13.27;100.00;102135.84;7385044;19;20018;-71
2022/11/02 10:26:42;;;;;;;8.18;2.70;;;;;;;13.36;100.00;102140.44;7383372;19;20014;-71
2022/11/02 10:29:18;;;;;;;14.52;2.78;;;;;;;13.38;100.00;102134.34;7382297;19;20011;-71
2022/11/02 10:31:48;;;;;;;10.55;2.22;;;;;;;13.77;100.00;102140.44;7383829;19;20014;-71
2022/11/02 10:34:25;;;;;;;11.50;2.45;;;;;;;13.81;100.00;102139.63;7382510;19;20240;-71
2022/11/02 10:37:07;;;;;;;14.13;2.60;;;;;;;13.91;100.00;102145.13;7381831;19;20034;-71
2022/11/02 10:39:49;;;;;;;8.35;2.20;;;;;;;13.91;100.00;102147.75;7377121;19;20010;-71
2022/11/02 10:42:34;;;;;;;9.27;2.10;;;;;;;13.89;100.00;102144.19;7379632;19;20129;-71
2022/11/02 10:45:38;;;;;;;13.10;2.33;;;;;;;13.99;100.00;102145.28;7379552;19;20028;-71
2022/11/02 10:48:19;;;;;;;8.00;1.98;;;;;;;13.96;100.00;102134.66;7380685;19;20018;-71
2022/11/02 10:50:49;;;;;;;8.52;2.30;;;;;;;14.10;100.00;102142.84;7377692;19;20011;-71
2022/11/02 10:53:22;;;;;;;11.38;2.40;;;;;;;13.99;100.00;102140.00;7373656;19;20021;-71
2022/11/02 10:56:05;;;;;;;13.77;2.15;;;;;;;14.03;100.00;102137.47;7378696;19;20017;-72
2022/11/02 10:58:35;;;;;;;13.27;2.85;;;;;;;14.04;100.00;102141.88;7377082;19;20053;-72
2022/11/02 11:01:10;;;;;;;11.52;2.40;;;;;;;14.01;100.00;102154.13;7377367;19;20378;-72
2022/11/02 11:03:56;;;;;;;8.38;2.15;;;;;;;14.00;100.00;102137.41;7380899;19;20086;-73
2022/11/02 11:06:29;;;;;;;10.02;1.98;;;;;;;14.08;100.00;102132.28;7378493;19;20499;-71
2022/11/02 11:09:04;;;;;;;9.83;2.37;;;;;;;13.90;100.00;102131.91;7381018;19;20007;-71
2022/11/02 11:11:39;;;;;;;8.00;1.80;;;;;;;13.97;100.00;102124.16;7382158;19;20055;-71
2022/11/02 11:14:16;;;;;;;7.15;2.30;;;;;;;14.10;100.00;102124.38;7385900;19;20042;-73
2022/11/02 11:17:16;;;;;;;7.95;2.25;;;;;;;13.94;100.00;102120.56;7380992;19;20419;-73
2022/11/02 11:20:08;;;;;;;9.48;2.25;;;;;;;14.02;100.00;102130.41;7380089;19;20022;-72
2022/11/02 11:22:40;;;;;;;10.02;2.20;;;;;;;14.00;100.00;102129.47;7379823;19;20014;-73
2022/11/02 11:25:30;;;;;;;12.10;2.20;;;;;;;14.16;100.00;102133.31;7381366;19;20731;-73
2022/11/02 11:28:03;;;;;;;5.13;1.92;;;;;;;14.13;100.00;102138.53;7380202;19;20006;-73
2022/11/02 11:30:35;;;;;;;6.85;2.20;;;;;;;14.21;100.00;102136.94;7380555;19;20025;-72
2022/11/02 11:33:25;;;;;;;11.38;2.70;;;;;;;14.35;100.00;102145.09;7378642;19;20041;-72
2022/11/02 11:35:57;;;;;;;11.45;2.63;;;;;;;14.26;100.00;102147.56;7376580;19;20006;-73
2022/11/02 11:38:28;;;;;;;12.40;2.60;;;;;;;14.11;100.00;102139.34;7373983;19;20006;-72
2022/11/02 11:41:01;;;;;;;15.77;3.33;;;;;;;14.25;100.00;102132.59;7378842;19;20006;-73
2022/11/02 11:43:39;;;;;;;11.80;2.22;;;;;;;14.31;100.00;102119.50;7379364;19;20078;-73
2022/11/02 11:46:12;;;;;;;11.65;2.28;;;;;;;14.29;100.00;102129.16;7378835;19;20015;-73
2022/11/02 11:48:46;;;;;;;10.52;2.00;;;;;;;14.38;100.00;102130.22;7381425;19;20513;-73
2022/11/02 11:51:34;;;;;;;10.68;2.13;;;;;;;14.46;100.00;102133.03;7381089;19;20692;-73
2022/11/02 11:54:19;;;;;;;11.70;2.42;;;;;;;14.48;100.00;102136.56;7380323;19;20512;-72
2022/11/02 11:56:51;;;;;;;11.88;2.63;;;;;;;14.39;100.00;102121.44;7376893;19;20014;-73
2022/11/02 11:59:26;;;;;;;9.80;2.78;;;;;;;14.33;100.00;102121.31;7373776;19;20034;-73